createdAt,value
2018-09-24T00:02:05.811Z,99.28
2018-09-24T00:03:05.727Z,99.57
2018-09-24T00:05:09.590Z,99.66
2018-09-24T00:06:09.465Z,99.76
2018-09-24T00:08:13.423Z,99.76
2018-09-24T00:09:13.295Z,99.76
2018-09-24T00:11:17.121Z,99.99
2018-09-24T00:12:17.039Z,99.99
2018-09-24T00:14:32.152Z,99.99
2018-09-24T00:15:32.024Z,99.99
2018-09-24T00:17:35.883Z,99.61
2018-09-24T00:18:35.752Z,99.99
2018-09-24T00:20:39.561Z,99.99
2018-09-24T00:21:39.478Z,99.99
2018-09-24T00:23:43.335Z,99.99
2018-09-24T00:24:43.208Z,99.99
2018-09-24T00:26:48.043Z,99.99
2018-09-24T00:27:47.962Z,99.99
2018-09-24T00:29:40.764Z,99.99
2018-09-24T00:30:40.626Z,99.99
2018-09-24T00:31:40.547Z,99.99
2018-09-24T00:32:40.472Z,99.99
2018-09-24T00:33:40.398Z,99.99
2018-09-24T00:34:40.307Z,99.99
2018-09-24T00:35:40.230Z,99.99
2018-09-24T00:36:40.150Z,99.71
2018-09-24T00:37:40.070Z,99.71
2018-09-24T00:38:40.006Z,99.85
2018-09-24T00:39:39.912Z,99.66
2018-09-24T00:40:39.834Z,98.99
2018-09-24T00:41:39.750Z,99.99
2018-09-24T00:42:39.669Z,99.66
2018-09-24T00:43:39.668Z,99.56
2018-09-24T00:44:39.511Z,99.37
2018-09-24T00:45:39.440Z,99.75
2018-09-24T00:46:39.352Z,99.56
2018-09-24T00:47:39.275Z,99.46
2018-09-24T00:48:39.197Z,99.99
2018-09-24T00:49:39.111Z,99.99
2018-09-24T00:50:39.037Z,99.75
2018-09-24T00:51:38.951Z,99.46
2018-09-24T00:52:38.879Z,98.90
2018-09-24T00:53:38.791Z,98.99
2018-09-24T00:54:38.713Z,98.99
2018-09-24T00:55:38.631Z,99.27
2018-09-24T00:56:38.550Z,99.66
2018-09-24T00:57:38.472Z,99.95
2018-09-24T00:58:38.390Z,99.27
2018-09-24T00:59:38.314Z,99.56
2018-09-24T01:00:38.241Z,98.99
2018-09-24T01:01:38.150Z,99.08
2018-09-24T01:02:38.069Z,99.08
2018-09-24T01:03:37.994Z,99.08
2018-09-24T01:04:37.912Z,98.13
2018-09-24T01:05:37.833Z,98.51
2018-09-24T01:06:37.749Z,98.42
2018-09-24T01:07:37.673Z,98.99
2018-09-24T01:08:37.593Z,97.85
2018-09-24T01:09:37.514Z,98.42
2018-09-24T01:10:37.430Z,98.70
2018-09-24T01:11:37.361Z,97.94
2018-09-24T01:12:37.270Z,98.22
2018-09-24T01:13:37.199Z,98.13
2018-09-24T01:14:37.112Z,98.42
2018-09-24T01:15:37.031Z,98.22
2018-09-24T01:16:36.950Z,98.32
2018-09-24T01:17:36.871Z,98.13
2018-09-24T01:18:36.793Z,97.94
2018-09-24T01:19:36.712Z,97.75
2018-09-24T01:20:36.633Z,98.03
2018-09-24T01:21:36.553Z,98.70
2018-09-24T01:22:36.472Z,99.08
2018-09-24T01:23:36.394Z,98.32
2018-09-24T01:24:36.317Z,98.03
2018-09-24T01:25:36.232Z,97.27
2018-09-24T01:26:36.159Z,98.03
2018-09-24T01:27:36.075Z,98.22
2018-09-24T01:28:35.993Z,97.56
2018-09-24T01:29:35.914Z,98.13
2018-09-24T01:30:35.831Z,98.03
2018-09-24T01:31:35.757Z,98.99
2018-09-24T01:32:35.675Z,97.85
2018-09-24T01:33:35.603Z,97.75
2018-09-24T01:34:35.512Z,98.32
2018-09-24T01:35:35.429Z,99.27
2018-09-24T01:36:35.352Z,99.27
2018-09-24T01:37:35.272Z,98.99
2018-09-24T01:38:35.201Z,98.22
2018-09-24T01:39:35.111Z,98.22
2018-09-24T01:40:35.034Z,98.99
2018-09-24T01:41:34.952Z,98.22
2018-09-24T01:42:34.874Z,97.46
2018-09-24T01:43:34.841Z,98.42
2018-09-24T01:44:34.727Z,98.99
2018-09-24T01:45:34.630Z,99.56
2018-09-24T01:46:34.553Z,99.66
2018-09-24T01:47:34.472Z,99.27
2018-09-24T01:48:34.389Z,99.08
2018-09-24T01:49:34.314Z,98.90
2018-09-24T01:50:34.230Z,98.70
2018-09-24T01:51:34.154Z,98.90
2018-09-24T01:52:34.072Z,98.80
2018-09-24T01:53:33.989Z,99.08
2018-09-24T01:54:33.909Z,98.70
2018-09-24T01:55:33.828Z,98.99
2018-09-24T01:56:33.749Z,98.90
2018-09-24T01:57:33.675Z,98.80
2018-09-24T01:58:33.636Z,98.42
2018-09-24T01:59:33.515Z,97.89
2018-09-24T02:00:33.435Z,98.36
2018-09-24T02:01:33.348Z,99.04
2018-09-24T02:02:33.268Z,98.65
2018-09-24T02:03:33.186Z,98.75
2018-09-24T02:04:33.106Z,98.85
2018-09-24T02:05:33.027Z,98.94
2018-09-24T02:06:32.947Z,98.27
2018-09-24T02:07:32.883Z,98.75
2018-09-24T02:08:32.788Z,99.04
2018-09-24T02:09:32.707Z,98.65
2018-09-24T02:10:32.626Z,98.27
2018-09-24T02:11:32.549Z,98.94
2018-09-24T02:12:32.462Z,97.99
2018-09-24T02:13:32.386Z,98.18
2018-09-24T02:14:32.305Z,97.61
2018-09-24T02:15:32.226Z,99.04
2018-09-24T02:16:32.144Z,98.94
2018-09-24T02:17:32.068Z,98.65
2018-09-24T02:18:31.986Z,97.80
2018-09-24T02:19:31.910Z,97.32
2018-09-24T02:20:31.824Z,97.61
2018-09-24T02:21:31.747Z,97.51
2018-09-24T02:22:31.663Z,97.80
2018-09-24T02:23:31.581Z,98.36
2018-09-24T02:24:31.505Z,98.46
2018-09-24T02:25:31.421Z,98.94
2018-09-24T02:26:31.342Z,98.75
2018-09-24T02:27:31.260Z,97.99
2018-09-24T02:28:31.182Z,98.18
2018-09-24T02:29:31.104Z,98.18
2018-09-24T02:30:31.018Z,98.36
2018-09-24T02:31:30.938Z,98.08
2018-09-24T02:32:30.859Z,97.89
2018-09-24T02:33:30.781Z,97.51
2018-09-24T02:34:30.694Z,97.61
2018-09-24T02:35:30.619Z,98.13
2018-09-24T02:36:30.540Z,97.89
2018-09-24T02:37:30.464Z,98.13
2018-09-24T02:38:30.374Z,97.75
2018-09-24T02:39:30.293Z,98.03
2018-09-24T02:40:30.212Z,98.13
2018-09-24T02:41:30.135Z,97.65
2018-09-24T02:42:30.057Z,96.98
2018-09-24T02:43:29.972Z,97.75
2018-09-24T02:44:29.896Z,98.13
2018-09-24T02:45:29.811Z,97.27
2018-09-24T02:46:29.742Z,97.75
2018-09-24T02:47:29.648Z,98.13
2018-09-24T02:48:29.568Z,98.22
2018-09-24T02:49:29.488Z,98.03
2018-09-24T02:50:29.451Z,97.46
2018-09-24T02:51:29.330Z,97.94
2018-09-24T02:52:29.247Z,97.46
2018-09-24T02:53:29.169Z,97.84
2018-09-24T02:54:29.085Z,97.56
2018-09-24T02:55:29.004Z,97.65
2018-09-24T02:56:28.926Z,97.75
2018-09-24T02:57:28.856Z,97.46
2018-09-24T02:58:28.765Z,97.94
2018-09-24T02:59:28.694Z,97.56
2018-09-24T03:00:28.608Z,98.51
2018-09-24T03:01:28.602Z,97.17
2018-09-24T03:02:28.438Z,98.22
2018-09-24T03:03:28.358Z,97.65
2018-09-24T03:04:28.285Z,97.56
2018-09-24T03:05:28.202Z,97.17
2018-09-24T03:06:28.114Z,97.46
2018-09-24T03:07:28.034Z,97.75
2018-09-24T03:08:27.952Z,97.36
2018-09-24T03:09:27.872Z,97.84
2018-09-24T03:10:27.797Z,97.17
2018-09-24T03:11:27.717Z,98.13
2018-09-24T03:12:27.635Z,97.94
2018-09-24T03:13:27.555Z,97.75
2018-09-24T03:14:27.467Z,97.94
2018-09-24T03:15:27.387Z,97.56
2018-09-24T03:16:27.310Z,97.17
2018-09-24T03:17:27.229Z,97.75
2018-09-24T03:18:27.156Z,97.94
2018-09-24T03:19:27.070Z,97.84
2018-09-24T03:20:26.986Z,98.13
2018-09-24T03:21:26.904Z,97.75
2018-09-24T03:22:26.829Z,98.03
2018-09-24T03:23:26.747Z,98.03
2018-09-24T03:24:26.668Z,97.56
2018-09-24T03:25:26.583Z,97.84
2018-09-24T03:26:26.554Z,98.89
2018-09-24T03:27:26.475Z,98.89
2018-09-24T03:28:26.343Z,98.79
2018-09-24T03:29:26.257Z,98.70
2018-09-24T03:30:26.184Z,99.08
2018-09-24T03:31:26.102Z,98.32
2018-09-24T03:32:26.018Z,98.70
2018-09-24T03:33:25.940Z,98.89
2018-09-24T03:34:25.865Z,99.18
2018-09-24T03:35:25.774Z,98.51
2018-09-24T03:36:25.693Z,98.41
2018-09-24T03:37:25.612Z,98.51
2018-09-24T03:38:25.533Z,98.99
2018-09-24T03:39:25.454Z,99.37
2018-09-24T03:40:25.369Z,99.18
2018-09-24T03:41:25.300Z,99.55
2018-09-24T03:42:25.205Z,99.65
2018-09-24T03:43:25.143Z,99.75
2018-09-24T03:44:25.046Z,99.46
2018-09-24T03:45:24.968Z,99.84
2018-09-24T03:46:24.888Z,99.99
2018-09-24T03:47:24.804Z,99.99
2018-09-24T03:48:24.746Z,99.37
2018-09-24T03:49:24.643Z,99.18
2018-09-24T03:50:24.561Z,99.46
2018-09-24T03:51:24.483Z,99.99
2018-09-24T03:52:24.401Z,99.94
2018-09-24T03:53:24.326Z,99.99
2018-09-24T03:54:24.250Z,99.99
2018-09-24T03:55:24.159Z,99.75
2018-09-24T03:56:24.080Z,99.27
2018-09-24T03:57:23.994Z,99.27
2018-09-24T03:58:23.915Z,99.65
2018-09-24T03:59:23.847Z,99.46
2018-09-24T04:00:23.759Z,99.75
2018-09-24T04:01:23.671Z,99.99
2018-09-24T04:02:23.596Z,99.99
2018-09-24T04:03:23.512Z,99.99
2018-09-24T04:04:23.427Z,99.99
2018-09-24T04:05:23.348Z,99.99
2018-09-24T04:06:23.337Z,99.99
2018-09-24T04:07:23.191Z,99.99
2018-09-24T04:08:23.112Z,99.99
2018-09-24T04:09:23.077Z,99.99
2018-09-24T04:10:22.941Z,99.99
2018-09-24T04:11:22.860Z,99.03
2018-09-24T04:12:22.781Z,99.03
2018-09-24T04:13:22.702Z,99.32
2018-09-24T04:14:29.771Z,99.22
2018-09-24T04:16:26.478Z,99.22
2018-09-24T04:17:33.514Z,99.18
2018-09-24T04:19:26.285Z,98.55
2018-09-24T04:20:19.016Z,98.84
2018-09-24T04:22:22.939Z,99.22
2018-09-24T04:23:29.899Z,99.27
2018-09-24T04:25:33.722Z,99.37
2018-09-24T04:26:26.494Z,99.37
2018-09-24T04:28:37.512Z,98.79
2018-09-24T04:29:37.369Z,98.94
2018-09-24T04:31:34.072Z,99.51
2018-09-24T04:32:41.094Z,99.99
2018-09-24T04:34:37.816Z,99.37
2018-09-24T04:35:37.667Z,99.22
2018-09-24T04:36:37.591Z,99.22
2018-09-24T04:37:37.501Z,99.22
2018-09-24T04:38:37.425Z,99.60
2018-09-24T04:39:37.411Z,99.41
2018-09-24T04:40:37.333Z,99.69
2018-09-24T04:41:37.236Z,99.99
2018-09-24T04:42:37.095Z,99.99
2018-09-24T04:43:37.015Z,99.99
2018-09-24T04:44:36.932Z,99.99
2018-09-24T04:45:36.860Z,99.99
2018-09-24T04:46:36.771Z,99.51
2018-09-24T04:47:36.687Z,99.03
2018-09-24T04:48:36.609Z,99.22
2018-09-24T04:49:36.528Z,99.41
2018-09-24T04:50:36.445Z,99.32
2018-09-24T04:51:36.362Z,99.69
2018-09-24T04:52:36.290Z,99.99
2018-09-24T04:53:36.231Z,99.99
2018-09-24T04:54:36.120Z,99.79
2018-09-24T04:55:36.038Z,99.22
2018-09-24T04:56:35.958Z,99.22
2018-09-24T04:57:35.878Z,99.22
2018-09-24T04:58:35.806Z,99.51
2018-09-24T04:59:35.720Z,99.13
2018-09-24T05:00:35.637Z,99.32
2018-09-24T05:01:35.553Z,98.84
2018-09-24T05:02:35.471Z,99.51
2018-09-24T05:03:35.407Z,99.03
2018-09-24T05:04:35.310Z,98.84
2018-09-24T05:05:35.229Z,98.55
2018-09-24T05:06:35.155Z,99.13
2018-09-24T05:07:35.072Z,98.94
2018-09-24T05:08:34.983Z,98.94
2018-09-24T05:09:34.916Z,98.94
2018-09-24T05:10:34.825Z,99.32
2018-09-24T05:11:34.740Z,99.22
2018-09-24T05:12:34.728Z,99.32
2018-09-24T05:13:34.608Z,99.41
2018-09-24T05:14:34.498Z,99.60
2018-09-24T05:15:34.417Z,99.13
2018-09-24T05:16:34.355Z,99.13
2018-09-24T05:17:34.255Z,99.60
2018-09-24T05:18:34.172Z,99.99
2018-09-24T05:19:34.093Z,99.99
2018-09-24T05:20:34.020Z,99.79
2018-09-24T05:21:33.928Z,99.13
2018-09-24T05:22:33.849Z,99.99
2018-09-24T05:23:33.765Z,99.32
2018-09-24T05:24:33.683Z,99.22
2018-09-24T05:25:33.602Z,99.03
2018-09-24T05:26:33.522Z,99.32
2018-09-24T05:27:33.441Z,99.51
2018-09-24T05:28:33.358Z,99.32
2018-09-24T05:29:33.283Z,99.32
2018-09-24T05:30:33.198Z,99.69
2018-09-24T05:31:33.117Z,99.99
2018-09-24T05:32:33.040Z,99.89
2018-09-24T05:33:32.955Z,99.99
2018-09-24T05:34:32.978Z,99.99
2018-09-24T05:35:32.807Z,99.41
2018-09-24T05:36:32.714Z,99.51
2018-09-24T05:37:32.631Z,99.32
2018-09-24T05:38:32.547Z,99.79
2018-09-24T05:39:32.467Z,99.69
2018-09-24T05:40:32.389Z,99.32
2018-09-24T05:41:32.305Z,99.22
2018-09-24T05:42:32.224Z,99.69
2018-09-24T05:43:32.146Z,99.41
2018-09-24T05:44:32.065Z,99.69
2018-09-24T05:45:31.980Z,98.84
2018-09-24T05:46:31.901Z,99.69
2018-09-24T05:47:31.824Z,98.65
2018-09-24T05:48:31.741Z,99.03
2018-09-24T05:49:31.660Z,99.51
2018-09-24T05:50:31.576Z,98.55
2018-09-24T05:51:31.498Z,98.55
2018-09-24T05:52:31.414Z,98.65
2018-09-24T05:53:31.339Z,98.84
2018-09-24T05:54:31.252Z,99.65
2018-09-24T05:55:31.216Z,98.84
2018-09-24T05:56:31.089Z,98.70
2018-09-24T05:57:31.010Z,98.79
2018-09-24T05:58:30.936Z,98.79
2018-09-24T05:59:30.846Z,97.84
2018-09-24T06:00:30.821Z,97.75
2018-09-24T06:01:30.684Z,98.13
2018-09-24T06:02:30.603Z,97.31
2018-09-24T06:12:43.708Z,97.56
2018-09-24T06:13:43.627Z,97.65
2018-09-24T06:15:47.923Z,97.36
2018-09-24T06:16:47.795Z,97.08
2018-09-24T06:18:52.193Z,97.75
2018-09-24T06:19:52.011Z,97.94
2018-09-24T06:21:56.297Z,97.27
2018-09-24T06:22:56.216Z,97.36
2018-09-24T06:23:56.132Z,98.03
2018-09-24T06:24:56.066Z,97.08
2018-09-24T06:25:55.972Z,98.22
2018-09-24T06:26:55.896Z,98.51
2018-09-24T06:27:55.809Z,98.03
2018-09-24T06:28:55.729Z,98.13
2018-09-24T06:29:55.665Z,98.03
2018-09-24T06:30:55.568Z,97.46
2018-09-24T06:31:55.485Z,97.56
2018-09-24T06:32:55.406Z,97.75
2018-09-24T06:33:55.326Z,97.36
2018-09-24T06:34:55.242Z,96.89
2018-09-24T06:35:55.160Z,97.84
2018-09-24T06:36:55.081Z,97.17
2018-09-24T06:37:55.003Z,97.36
2018-09-24T06:38:54.920Z,98.22
2018-09-24T06:39:54.835Z,97.75
2018-09-24T06:40:54.769Z,97.84
2018-09-24T06:41:54.680Z,96.22
2018-09-24T06:42:54.601Z,95.27
2018-09-24T06:43:54.516Z,95.75
2018-09-24T06:44:54.520Z,96.03
2018-09-24T06:45:54.355Z,96.03
2018-09-24T06:46:54.285Z,95.94
2018-09-24T06:47:54.193Z,96.89
2018-09-24T06:48:54.129Z,96.70
2018-09-24T06:49:54.036Z,96.98
2018-09-24T06:50:53.950Z,97.36
2018-09-24T06:51:53.870Z,97.27
2018-09-24T06:52:53.791Z,97.27
2018-09-24T06:53:53.709Z,97.36
2018-09-24T06:54:53.628Z,95.94
2018-09-24T06:55:53.548Z,95.46
2018-09-24T06:56:53.467Z,95.08
2018-09-24T06:57:53.384Z,94.41
2018-09-24T06:58:53.305Z,93.65
2018-09-24T06:59:53.227Z,93.74
2018-09-24T07:00:53.145Z,94.70
2018-09-24T07:01:53.072Z,94.89
2018-09-24T07:02:52.987Z,94.60
2018-09-24T07:03:52.907Z,94.03
2018-09-24T07:04:52.830Z,94.60
2018-09-24T07:05:52.765Z,94.32
2018-09-24T07:06:52.664Z,94.60
2018-09-24T07:07:52.581Z,95.03
2018-09-24T07:08:52.512Z,95.08
2018-09-24T07:09:52.433Z,95.17
2018-09-24T07:10:52.356Z,94.13
2018-09-24T07:11:52.272Z,94.03
2018-09-24T07:12:52.192Z,92.98
2018-09-24T07:13:52.111Z,92.89
2018-09-24T07:14:52.021Z,92.50
2018-09-24T07:15:51.937Z,91.84
2018-09-24T07:16:51.858Z,92.13
2018-09-24T07:17:51.783Z,93.41
2018-09-24T07:18:51.699Z,93.32
2018-09-24T07:19:51.617Z,91.79
2018-09-24T07:20:51.536Z,91.50
2018-09-24T07:21:51.459Z,91.98
2018-09-24T07:22:51.378Z,91.79
2018-09-24T07:23:51.295Z,90.74
2018-09-24T07:24:51.217Z,89.98
2018-09-24T07:25:51.140Z,89.60
2018-09-24T07:26:51.060Z,88.64
2018-09-24T07:27:51.002Z,87.21
2018-09-24T07:28:50.894Z,86.83
2018-09-24T07:29:50.837Z,86.93
2018-09-24T07:30:50.736Z,87.26
2018-09-24T07:31:50.656Z,86.88
2018-09-24T07:32:50.577Z,85.41
2018-09-24T07:33:50.496Z,84.74
2018-09-24T07:34:50.424Z,85.60
2018-09-24T07:35:50.338Z,86.07
2018-09-24T07:36:50.253Z,86.36
2018-09-24T07:37:50.177Z,86.45
2018-09-24T07:38:50.097Z,86.16
2018-09-24T07:39:50.014Z,86.65
2018-09-24T07:40:49.970Z,87.60
2018-09-24T07:41:49.858Z,86.36
2018-09-24T07:42:49.778Z,85.54
2018-09-24T07:43:49.699Z,85.50
2018-09-24T07:44:49.618Z,85.88
2018-09-24T07:45:49.555Z,86.93
2018-09-24T07:46:51.492Z,87.60
2018-09-24T07:47:49.378Z,88.55
2018-09-24T07:48:49.311Z,88.69
2018-09-24T07:49:49.218Z,89.36
2018-09-24T07:50:49.196Z,88.59
2018-09-24T07:51:49.183Z,88.69
2018-09-24T07:52:48.978Z,88.59
2018-09-24T07:53:48.965Z,85.02
2018-09-24T07:54:48.819Z,85.21
2018-09-24T07:55:48.758Z,86.26
2018-09-24T07:56:48.662Z,88.55
2018-09-24T07:57:48.597Z,87.60
2018-09-24T07:58:48.502Z,87.79
2018-09-24T07:59:48.437Z,87.98
2018-09-24T08:00:48.373Z,88.17
2018-09-24T08:01:48.261Z,89.22
2018-09-24T08:02:48.187Z,88.55
2018-09-24T08:03:48.104Z,87.79
2018-09-24T08:04:48.020Z,87.31
2018-09-24T08:05:47.958Z,87.40
2018-09-24T08:06:47.867Z,87.54
2018-09-24T08:07:47.781Z,86.78
2018-09-24T08:08:47.708Z,86.40
2018-09-24T08:09:47.628Z,85.83
2018-09-24T08:10:47.557Z,86.11
2018-09-24T08:11:47.463Z,85.93
2018-09-24T08:12:47.431Z,85.06
2018-09-24T08:13:47.305Z,85.16
2018-09-24T08:14:47.222Z,84.69
2018-09-24T08:15:47.146Z,84.97
2018-09-24T08:16:47.065Z,84.30
2018-09-24T08:17:47.002Z,83.73
2018-09-24T08:18:46.905Z,84.11
2018-09-24T08:19:46.826Z,84.20
2018-09-24T08:20:46.745Z,83.83
2018-09-24T08:21:46.673Z,85.25
2018-09-24T08:22:46.605Z,85.35
2018-09-24T08:23:46.507Z,84.11
2018-09-24T08:24:46.432Z,84.01
2018-09-24T08:25:46.347Z,84.30
2018-09-24T08:26:46.269Z,84.30
2018-09-24T08:27:46.188Z,84.30
2018-09-24T08:28:46.122Z,83.83
2018-09-24T08:29:46.029Z,83.44
2018-09-24T08:30:45.954Z,83.83
2018-09-24T08:31:46.420Z,84.30
2018-09-24T08:32:45.805Z,85.35
2018-09-24T08:33:45.711Z,86.30
2018-09-24T08:34:45.635Z,86.69
2018-09-24T08:35:45.552Z,86.88
2018-09-24T08:36:45.474Z,87.26
2018-09-24T08:37:45.393Z,88.12
2018-09-24T08:38:45.317Z,87.07
2018-09-24T08:39:45.237Z,85.16
2018-09-24T08:40:45.157Z,85.21
2018-09-24T08:41:45.089Z,85.54
2018-09-24T08:42:44.998Z,85.50
2018-09-24T08:43:44.926Z,86.07
2018-09-24T08:44:44.884Z,86.65
2018-09-24T08:45:44.758Z,86.16
2018-09-24T08:46:44.722Z,84.83
2018-09-24T08:47:44.603Z,84.16
2018-09-24T08:48:44.527Z,84.45
2018-09-24T08:49:44.496Z,84.74
2018-09-24T08:50:44.362Z,84.16
2018-09-24T08:51:44.279Z,84.36
2018-09-24T08:52:44.201Z,84.64
2018-09-24T08:53:44.119Z,85.93
2018-09-24T08:54:44.082Z,86.07
2018-09-24T08:55:43.985Z,86.11
2018-09-24T08:56:44.014Z,86.11
2018-09-24T08:57:43.800Z,85.16
2018-09-24T08:58:43.737Z,85.16
2018-09-24T08:59:43.649Z,86.30
2018-09-24T09:00:43.563Z,86.59
2018-09-24T09:01:43.482Z,85.25
2018-09-24T09:02:43.497Z,84.59
2018-09-24T09:03:43.326Z,83.54
2018-09-24T09:04:43.242Z,83.83
2018-09-24T09:05:43.162Z,85.16
2018-09-24T09:06:43.085Z,84.88
2018-09-24T09:07:43.004Z,84.49
2018-09-24T09:08:42.923Z,84.69
2018-09-24T09:09:42.845Z,85.45
2018-09-24T09:10:42.767Z,84.88
2018-09-24T09:11:42.689Z,83.83
2018-09-24T09:12:42.608Z,83.35
2018-09-24T09:13:42.538Z,83.06
2018-09-24T09:14:42.452Z,83.06
2018-09-24T09:15:42.371Z,84.11
2018-09-24T09:16:42.288Z,84.30
2018-09-24T09:17:42.210Z,83.44
2018-09-24T09:18:42.131Z,82.78
2018-09-24T09:19:42.052Z,83.35
2018-09-24T09:20:41.968Z,82.01
2018-09-24T09:21:41.893Z,80.58
2018-09-24T09:22:41.817Z,79.15
2018-09-24T09:23:41.758Z,79.91
2018-09-24T09:24:41.658Z,81.06
2018-09-24T09:25:41.603Z,82.11
2018-09-24T09:26:41.507Z,81.15
2018-09-24T09:27:41.415Z,80.30
2018-09-24T09:28:41.339Z,82.11
2018-09-24T09:29:41.263Z,82.34
2018-09-24T09:32:12.752Z,80.33
2018-09-24T09:33:12.622Z,80.91
2018-09-24T09:34:12.548Z,80.91
2018-09-24T09:35:12.478Z,79.10
2018-09-24T09:36:12.380Z,79.38
2018-09-24T09:37:12.308Z,81.20
2018-09-24T09:38:12.222Z,80.91
2018-09-24T09:39:12.141Z,83.39
2018-09-24T09:40:12.064Z,82.34
2018-09-24T09:41:12.002Z,78.43
2018-09-24T09:42:11.905Z,78.72
2018-09-24T09:43:11.827Z,80.33
2018-09-24T09:44:11.749Z,79.19
2018-09-24T09:45:11.669Z,78.23
2018-09-24T09:46:11.588Z,77.38
2018-09-24T09:47:11.510Z,76.81
2018-09-24T09:48:11.433Z,76.81
2018-09-24T09:49:11.356Z,76.04
2018-09-24T09:50:11.275Z,73.85
2018-09-24T09:51:11.195Z,74.23
2018-09-24T09:52:11.118Z,74.04
2018-09-24T09:53:11.039Z,73.94
2018-09-24T09:54:10.957Z,74.13
2018-09-24T09:55:10.877Z,73.75
2018-09-24T09:56:10.804Z,74.13
2018-09-24T09:57:10.720Z,74.42
2018-09-24T09:58:10.642Z,72.61
2018-09-24T09:59:10.573Z,73.08
2018-09-24T10:00:10.484Z,72.71
2018-09-24T10:01:10.405Z,73.18
2018-09-24T10:02:10.328Z,72.61
2018-09-24T10:03:10.249Z,72.42
2018-09-24T10:04:10.173Z,71.08
2018-09-24T10:05:10.089Z,70.98
2018-09-24T10:06:10.011Z,70.79
2018-09-24T10:07:09.937Z,70.92
2018-09-24T10:08:09.856Z,71.78
2018-09-24T10:09:09.775Z,71.41
2018-09-24T10:10:09.697Z,72.74
2018-09-24T10:11:09.659Z,73.12
2018-09-24T10:12:09.540Z,72.74
2018-09-24T10:13:09.457Z,71.88
2018-09-24T10:14:09.379Z,70.26
2018-09-24T10:15:09.303Z,69.31
2018-09-24T10:16:09.227Z,68.03
2018-09-24T10:17:09.145Z,67.68
2018-09-24T10:18:09.066Z,66.22
2018-09-24T10:19:08.987Z,64.81
2018-09-24T10:20:08.910Z,65.58
2018-09-24T10:21:08.833Z,67.97
2018-09-24T10:22:08.763Z,67.30
2018-09-24T10:23:08.675Z,66.53
2018-09-24T10:24:08.593Z,65.39
2018-09-24T10:25:08.514Z,65.14
2018-09-24T10:26:08.435Z,66.38
2018-09-24T10:27:08.358Z,66.66
2018-09-24T10:28:08.292Z,66.38
2018-09-24T10:29:08.209Z,66.38
2018-09-24T10:30:08.135Z,66.85
2018-09-24T10:31:08.055Z,66.85
2018-09-24T10:32:07.972Z,65.52
2018-09-24T10:33:07.890Z,64.37
2018-09-24T10:34:07.814Z,64.18
2018-09-24T10:35:07.734Z,65.33
2018-09-24T10:36:07.651Z,66.38
2018-09-24T10:37:07.574Z,65.80
2018-09-24T10:38:07.498Z,64.88
2018-09-24T10:39:07.422Z,64.88
2018-09-24T10:40:07.343Z,64.98
2018-09-24T10:41:07.266Z,66.09
2018-09-24T10:42:07.197Z,65.61
2018-09-24T10:43:07.108Z,65.80
2018-09-24T10:44:07.034Z,67.14
2018-09-24T10:45:06.961Z,66.19
2018-09-24T10:46:06.881Z,65.84
2018-09-24T10:47:06.796Z,64.22
2018-09-24T10:48:06.730Z,63.73
2018-09-24T10:49:06.643Z,63.64
2018-09-24T10:50:06.565Z,63.19
2018-09-24T10:51:06.492Z,62.08
2018-09-24T10:52:06.412Z,60.77
2018-09-24T10:53:06.417Z,60.77
2018-09-24T10:54:06.255Z,58.40
2018-09-24T10:55:06.184Z,55.73
2018-09-24T10:56:06.107Z,54.28
2018-09-24T10:57:06.029Z,54.60
2018-09-24T10:58:05.956Z,53.64
2018-09-24T10:59:05.882Z,53.45
2018-09-24T11:00:05.808Z,54.63
2018-09-24T11:01:05.744Z,54.46
2018-09-24T11:02:05.663Z,54.11
2018-09-24T11:03:05.591Z,52.02
2018-09-24T11:04:05.523Z,51.25
2018-09-24T11:05:05.450Z,51.40
2018-09-24T11:06:05.378Z,53.00
2018-09-24T11:07:05.308Z,53.62
2018-09-24T11:08:05.243Z,55.05
2018-09-24T11:09:05.173Z,55.98
2018-09-24T11:10:05.118Z,55.79
2018-09-24T11:11:05.039Z,55.86
2018-09-24T11:12:04.968Z,55.57
2018-09-24T11:13:04.903Z,57.01
2018-09-24T11:14:04.814Z,57.13
2018-09-24T11:15:04.738Z,54.93
2018-09-24T11:16:04.786Z,54.70
2018-09-24T11:17:04.796Z,51.46
2018-09-24T11:18:04.579Z,49.79
2018-09-24T11:19:04.452Z,48.76
2018-09-24T11:20:04.380Z,47.63
2018-09-24T11:21:04.306Z,47.08
2018-09-24T11:22:04.271Z,46.74
2018-09-24T11:23:04.176Z,48.64
2018-09-24T11:24:04.099Z,48.97
2018-09-24T11:25:04.032Z,49.81
2018-09-24T11:26:03.960Z,49.45
2018-09-24T11:27:03.895Z,49.86
2018-09-24T11:28:03.822Z,49.81
2018-09-24T11:29:03.757Z,51.56
2018-09-24T11:30:03.690Z,50.82
2018-09-24T11:31:03.613Z,48.80
2018-09-24T11:32:03.545Z,48.71
2018-09-24T11:33:03.474Z,49.05
2018-09-24T11:34:03.406Z,48.11
2018-09-24T11:35:03.340Z,46.98
2018-09-24T11:36:03.276Z,45.71
2018-09-24T11:37:03.201Z,45.54
2018-09-24T11:38:03.134Z,44.77
2018-09-24T11:39:03.071Z,45.18
2018-09-24T11:40:03.106Z,44.38
2018-09-24T11:41:02.939Z,43.54
2018-09-24T11:42:02.866Z,42.97
2018-09-24T11:43:02.806Z,43.28
2018-09-24T11:44:02.735Z,43.49
2018-09-24T11:45:02.672Z,41.76
2018-09-24T11:46:02.607Z,42.76
2018-09-24T11:47:02.627Z,40.57
2018-09-24T11:48:02.478Z,37.85
2018-09-24T11:49:02.437Z,37.46
2018-09-24T11:50:02.351Z,37.66
2018-09-24T11:51:02.297Z,36.89
2018-09-24T11:52:02.225Z,35.52
2018-09-24T11:53:02.157Z,36.49
2018-09-24T11:54:02.109Z,37.06
2018-09-24T11:55:02.035Z,37.52
2018-09-24T11:56:01.969Z,38.35
2018-09-24T11:57:01.906Z,40.41
2018-09-24T11:58:01.866Z,44.23
2018-09-24T11:59:01.780Z,46.86
2018-09-24T12:00:01.712Z,50.99
2018-09-24T12:01:01.645Z,53.09
2018-09-24T12:02:01.611Z,54.03
2018-09-24T12:03:01.516Z,53.89
2018-09-24T12:04:01.453Z,50.90
2018-09-24T12:05:01.381Z,49.72
2018-09-24T12:06:01.317Z,45.34
2018-09-24T12:07:01.247Z,44.11
2018-09-24T12:08:01.178Z,44.02
2018-09-24T12:09:01.110Z,41.97
2018-09-24T12:10:01.044Z,41.86
2018-09-24T12:11:00.998Z,44.51
2018-09-24T12:12:00.911Z,46.02
2018-09-24T12:13:00.855Z,46.31
2018-09-24T12:14:00.781Z,46.00
2018-09-24T12:15:00.732Z,46.81
2018-09-24T12:16:00.643Z,44.84
2018-09-24T12:17:00.577Z,43.23
2018-09-24T12:18:00.527Z,42.80
2018-09-24T12:19:00.445Z,42.40
2018-09-24T12:20:00.380Z,40.51
2018-09-24T12:21:00.317Z,39.06
2018-09-24T12:22:00.248Z,37.35
2018-09-24T12:23:00.184Z,36.69
2018-09-24T12:24:00.119Z,36.30
2018-09-24T12:25:00.052Z,33.98
2018-09-24T12:25:59.988Z,34.66
2018-09-24T12:26:59.923Z,34.58
2018-09-24T12:27:59.861Z,34.87
2018-09-24T12:28:59.797Z,34.33
2018-09-24T12:29:59.778Z,32.73
2018-09-24T12:30:59.683Z,34.88
2018-09-24T12:31:59.610Z,35.19
2018-09-24T12:32:59.546Z,35.42
2018-09-24T12:33:59.491Z,35.26
2018-09-24T12:34:59.424Z,35.55
2018-09-24T12:35:59.360Z,35.61
2018-09-24T12:36:59.296Z,36.15
2018-09-24T12:37:59.241Z,36.67
2018-09-24T12:38:59.172Z,34.47
2018-09-24T12:39:59.113Z,33.91
2018-09-24T12:40:59.054Z,32.07
2018-09-24T12:41:58.983Z,32.20
2018-09-24T12:42:58.935Z,31.73
2018-09-24T12:43:58.882Z,32.62
2018-09-24T12:44:58.798Z,31.46
2018-09-24T12:45:58.739Z,31.86
2018-09-24T12:46:58.676Z,31.26
2018-09-24T12:47:58.652Z,32.76
2018-09-24T12:48:58.551Z,35.13
2018-09-24T12:49:58.503Z,35.48
2018-09-24T12:50:58.430Z,37.37
2018-09-24T12:51:58.381Z,38.59
2018-09-24T12:52:58.347Z,39.64
2018-09-24T12:53:58.245Z,41.45
2018-09-24T12:54:58.179Z,40.81
2018-09-24T12:55:58.107Z,40.37
2018-09-24T12:56:58.053Z,38.46
2018-09-24T12:57:57.977Z,37.33
2018-09-24T12:58:57.913Z,35.28
2018-09-24T12:59:57.861Z,35.65
2018-09-24T13:00:57.784Z,35.46
2018-09-24T13:01:57.720Z,36.52
2018-09-24T13:02:57.680Z,35.96
2018-09-24T13:03:57.594Z,35.86
2018-09-24T13:04:57.534Z,35.00
2018-09-24T13:05:57.476Z,35.21
2018-09-24T13:06:57.405Z,34.82
2018-09-24T13:07:57.342Z,34.94
2018-09-24T13:08:57.281Z,34.47
2018-09-24T13:09:57.219Z,33.50
2018-09-24T13:10:57.155Z,33.60
2018-09-24T13:11:57.095Z,33.87
2018-09-24T13:12:57.031Z,34.16
2018-09-24T13:13:56.970Z,34.01
2018-09-24T13:14:56.913Z,36.97
2018-09-24T13:15:56.843Z,38.37
2018-09-24T13:16:56.782Z,40.35
2018-09-24T13:17:56.717Z,43.02
2018-09-24T13:18:56.652Z,42.50
2018-09-24T13:19:56.586Z,40.41
2018-09-24T13:20:56.522Z,40.37
2018-09-24T13:21:56.458Z,41.22
2018-09-24T13:22:56.405Z,42.06
2018-09-24T13:23:56.320Z,42.90